sensor_id;sensor_type;location;lat;lon;timestamp;pressure;altitude;pressure_sealevel;temperature;humidity
12471;BME280;36499;46.484;13.832;2023-01-30T00:01:28;93532.66;;;-4.54;77.65
12471;BME280;36499;46.484;13.832;2023-01-30T00:03:57;93526.28;;;-4.48;77.34
12471;BME280;36499;46.484;13.832;2023-01-30T00:06:24;93514.38;;;-4.59;77.26
12471;BME280;36499;46.484;13.832;2023-01-30T00:08:52;93514.81;;;-4.65;77.95
12471;BME280;36499;46.484;13.832;2023-01-30T00:11:20;93510.56;;;-4.53;77.47
12471;BME280;36499;46.484;13.832;2023-01-30T00:13:48;93512.31;;;-4.43;77.02
12471;BME280;36499;46.484;13.832;2023-01-30T00:16:16;93512.75;;;-4.60;76.28
12471;BME280;36499;46.484;13.832;2023-01-30T00:18:44;93504.78;;;-4.55;76.29
12471;BME280;36499;46.484;13.832;2023-01-30T00:21:13;93505.09;;;-4.71;77.00
12471;BME280;36499;46.484;13.832;2023-01-30T00:23:41;93505.22;;;-4.72;78.46
12471;BME280;36499;46.484;13.832;2023-01-30T00:26:10;93490.16;;;-4.75;79.60
12471;BME280;36499;46.484;13.832;2023-01-30T00:28:38;93489.25;;;-4.63;79.43
12471;BME280;36499;46.484;13.832;2023-01-30T00:31:06;93483.50;;;-4.54;79.97
12471;BME280;36499;46.484;13.832;2023-01-30T00:33:36;93482.69;;;-4.66;79.65
12471;BME280;36499;46.484;13.832;2023-01-30T00:36:05;93477.63;;;-4.55;79.42
12471;BME280;36499;46.484;13.832;2023-01-30T00:38:34;93475.53;;;-4.50;79.51
12471;BME280;36499;46.484;13.832;2023-01-30T00:41:01;93472.44;;;-4.53;78.47
12471;BME280;36499;46.484;13.832;2023-01-30T00:43:28;93474.59;;;-4.49;78.16
12471;BME280;36499;46.484;13.832;2023-01-30T00:46:22;93466.88;;;-4.36;76.90
12471;BME280;36499;46.484;13.832;2023-01-30T00:49:04;93462.03;;;-4.28;76.14
12471;BME280;36499;46.484;13.832;2023-01-30T00:51:31;93455.78;;;-4.24;76.74
12471;BME280;36499;46.484;13.832;2023-01-30T00:53:59;93451.59;;;-4.25;75.76
12471;BME280;36499;46.484;13.832;2023-01-30T00:56:26;93452.91;;;-4.30;76.79
12471;BME280;36499;46.484;13.832;2023-01-30T00:58:54;93445.13;;;-4.40;77.59
12471;BME280;36499;46.484;13.832;2023-01-30T01:01:21;93444.44;;;-4.42;78.04
12471;BME280;36499;46.484;13.832;2023-01-30T01:03:48;93444.91;;;-4.37;78.89
12471;BME280;36499;46.484;13.832;2023-01-30T01:06:15;93444.91;;;-4.37;78.88
12471;BME280;36499;46.484;13.832;2023-01-30T01:08:42;93442.25;;;-4.36;78.56
12471;BME280;36499;46.484;13.832;2023-01-30T01:11:10;93440.75;;;-4.27;78.09
12471;BME280;36499;46.484;13.832;2023-01-30T01:13:52;93432.41;;;-4.40;78.50
12471;BME280;36499;46.484;13.832;2023-01-30T01:16:20;93436.00;;;-4.43;79.55
12471;BME280;36499;46.484;13.832;2023-01-30T01:18:47;93435.09;;;-4.42;80.27
12471;BME280;36499;46.484;13.832;2023-01-30T01:21:16;93431.03;;;-4.33;79.44
12471;BME280;36499;46.484;13.832;2023-01-30T01:23:43;93420.16;;;-4.24;78.44
12471;BME280;36499;46.484;13.832;2023-01-30T01:26:12;93422.34;;;-4.19;78.60
12471;BME280;36499;46.484;13.832;2023-01-30T01:28:39;93420.03;;;-4.11;77.51
12471;BME280;36499;46.484;13.832;2023-01-30T01:31:09;93425.00;;;-4.10;77.87
12471;BME280;36499;46.484;13.832;2023-01-30T01:33:37;93425.59;;;-4.17;77.80
12471;BME280;36499;46.484;13.832;2023-01-30T01:36:06;93420.16;;;-4.35;77.58
12471;BME280;36499;46.484;13.832;2023-01-30T01:38:33;93417.16;;;-4.29;77.75
12471;BME280;36499;46.484;13.832;2023-01-30T01:41:00;93414.84;;;-4.54;78.10
12471;BME280;36499;46.484;13.832;2023-01-30T01:43:31;93412.88;;;-4.62;79.25
12471;BME280;36499;46.484;13.832;2023-01-30T01:46:04;93418.06;;;-4.52;78.77
12471;BME280;36499;46.484;13.832;2023-01-30T01:48:40;93416.56;;;-4.44;79.74
12471;BME280;36499;46.484;13.832;2023-01-30T01:51:16;93411.25;;;-4.29;78.66
12471;BME280;36499;46.484;13.832;2023-01-30T01:53:52;93408.94;;;-4.21;78.92
12471;BME280;36499;46.484;13.832;2023-01-30T01:56:22;93409.16;;;-4.13;77.08
12471;BME280;36499;46.484;13.832;2023-01-30T01:58:57;93404.88;;;-4.13;76.11
12471;BME280;36499;46.484;13.832;2023-01-30T02:01:27;93410.53;;;-4.09;75.28
12471;BME280;36499;46.484;13.832;2023-01-30T02:04:01;93402.81;;;-4.19;75.71
12471;BME280;36499;46.484;13.832;2023-01-30T02:06:30;93408.84;;;-4.31;76.99
12471;BME280;36499;46.484;13.832;2023-01-30T02:09:03;93406.88;;;-4.39;76.88
12471;BME280;36499;46.484;13.832;2023-01-30T02:11:40;93407.78;;;-4.40;77.62
12471;BME280;36499;46.484;13.832;2023-01-30T02:14:11;93397.59;;;-4.28;76.53
12471;BME280;36499;46.484;13.832;2023-01-30T02:16:42;93391.13;;;-4.32;76.37
12471;BME280;36499;46.484;13.832;2023-01-30T02:19:24;93395.97;;;-4.41;77.83
12471;BME280;36499;46.484;13.832;2023-01-30T02:32:44;93374.13;;;-4.21;77.69
12471;BME280;36499;46.484;13.832;2023-01-30T02:35:25;93368.81;;;-4.29;77.25
12471;BME280;36499;46.484;13.832;2023-01-30T02:38:15;93365.34;;;-4.39;78.26
12471;BME280;36499;46.484;13.832;2023-01-30T02:40:55;93353.66;;;-4.30;78.61
12471;BME280;36499;46.484;13.832;2023-01-30T02:43:35;93347.78;;;-4.31;79.06
12471;BME280;36499;46.484;13.832;2023-01-30T02:46:13;93335.38;;;-4.24;78.25
12471;BME280;36499;46.484;13.832;2023-01-30T02:48:48;93330.75;;;-4.19;77.83
12471;BME280;36499;46.484;13.832;2023-01-30T02:51:21;93340.44;;;-4.13;76.90
12471;BME280;36499;46.484;13.832;2023-01-30T02:53:50;93338.34;;;-4.08;76.78
12471;BME280;36499;46.484;13.832;2023-01-30T02:56:17;93330.25;;;-4.13;75.91
12471;BME280;36499;46.484;13.832;2023-01-30T02:58:51;93331.78;;;-4.22;77.31
12471;BME280;36499;46.484;13.832;2023-01-30T03:01:57;93329.19;;;-4.11;77.16
12471;BME280;36499;46.484;13.832;2023-01-30T03:05:00;93335.84;;;-4.19;77.56
12471;BME280;36499;46.484;13.832;2023-01-30T03:07:43;93332.34;;;-4.07;77.03
12471;BME280;36499;46.484;13.832;2023-01-30T03:10:25;93333.00;;;-4.05;76.93
12471;BME280;36499;46.484;13.832;2023-01-30T03:13:03;93326.91;;;-4.14;76.42
12471;BME280;36499;46.484;13.832;2023-01-30T03:15:39;93317.00;;;-4.28;77.41
12471;BME280;36499;46.484;13.832;2023-01-30T03:18:08;93318.88;;;-4.30;78.03
12471;BME280;36499;46.484;13.832;2023-01-30T03:20:39;93314.22;;;-4.36;77.90
12471;BME280;36499;46.484;13.832;2023-01-30T03:23:08;93317.47;;;-4.34;78.48
12471;BME280;36499;46.484;13.832;2023-01-30T03:25:38;93322.19;;;-4.29;77.39
12471;BME280;36499;46.484;13.832;2023-01-30T03:28:08;93317.22;;;-4.20;76.32
12471;BME280;36499;46.484;13.832;2023-01-30T03:30:36;93322.91;;;-4.27;75.52
12471;BME280;36499;46.484;13.832;2023-01-30T03:33:03;93319.91;;;-4.44;76.41
12471;BME280;36499;46.484;13.832;2023-01-30T03:35:31;93314.72;;;-4.42;76.98
12471;BME280;36499;46.484;13.832;2023-01-30T03:37:59;93314.59;;;-4.52;77.43
12471;BME280;36499;46.484;13.832;2023-01-30T03:40:27;93312.63;;;-4.48;78.46
12471;BME280;36499;46.484;13.832;2023-01-30T03:42:54;93307.09;;;-4.42;78.54
12471;BME280;36499;46.484;13.832;2023-01-30T03:45:21;93301.09;;;-4.63;78.93
12471;BME280;36499;46.484;13.832;2023-01-30T03:47:49;93303.63;;;-4.52;78.87
12471;BME280;36499;46.484;13.832;2023-01-30T03:50:16;93301.78;;;-4.50;77.31
12471;BME280;36499;46.484;13.832;2023-01-30T03:52:44;93299.47;;;-4.53;76.56
12471;BME280;36499;46.484;13.832;2023-01-30T03:55:12;93281.88;;;-4.56;76.38
12471;BME280;36499;46.484;13.832;2023-01-30T03:57:39;93291.16;;;-4.66;76.29
12471;BME280;36499;46.484;13.832;2023-01-30T04:00:08;93290.25;;;-4.76;77.79
12471;BME280;36499;46.484;13.832;2023-01-30T04:02:36;93291.28;;;-4.90;78.38
12471;BME280;36499;46.484;13.832;2023-01-30T04:05:04;93293.03;;;-4.91;79.52
12471;BME280;36499;46.484;13.832;2023-01-30T04:07:32;93291.66;;;-4.72;78.22
12471;BME280;36499;46.484;13.832;2023-01-30T04:09:59;93293.22;;;-4.60;76.87
12471;BME280;36499;46.484;13.832;2023-01-30T04:12:27;93287.69;;;-4.54;77.05
12471;BME280;36499;46.484;13.832;2023-01-30T04:14:54;93292.66;;;-4.53;78.00
12471;BME280;36499;46.484;13.832;2023-01-30T04:17:21;93283.72;;;-4.47;77.91
12471;BME280;36499;46.484;13.832;2023-01-30T04:19:48;93286.50;;;-4.39;78.10
12471;BME280;36499;46.484;13.832;2023-01-30T04:22:15;93279.34;;;-4.45;76.74
12471;BME280;36499;46.484;13.832;2023-01-30T04:24:43;93269.75;;;-4.64;76.17
12471;BME280;36499;46.484;13.832;2023-01-30T04:27:10;93272.00;;;-4.81;76.57
12471;BME280;36499;46.484;13.832;2023-01-30T04:29:38;93267.38;;;-4.76;76.80
12471;BME280;36499;46.484;13.832;2023-01-30T04:32:05;93261.38;;;-4.98;77.36
12471;BME280;36499;46.484;13.832;2023-01-30T04:34:32;93254.19;;;-4.81;77.97
12471;BME280;36499;46.484;13.832;2023-01-30T04:36:59;93243.44;;;-4.74;77.16
12471;BME280;36499;46.484;13.832;2023-01-30T04:39:26;93240.09;;;-4.74;77.74
12471;BME280;36499;46.484;13.832;2023-01-30T04:41:53;93238.94;;;-4.70;77.67
12471;BME280;36499;46.484;13.832;2023-01-30T04:44:20;93223.91;;;-4.73;78.44
12471;BME280;36499;46.484;13.832;2023-01-30T04:46:49;93231.53;;;-4.62;77.93
12471;BME280;36499;46.484;13.832;2023-01-30T04:49:16;93227.25;;;-4.62;77.43
12471;BME280;36499;46.484;13.832;2023-01-30T04:51:43;93226.44;;;-4.62;77.48
12471;BME280;36499;46.484;13.832;2023-01-30T04:54:10;93229.91;;;-4.63;77.08
12471;BME280;36499;46.484;13.832;2023-01-30T04:56:38;93232.47;;;-4.74;76.72
12471;BME280;36499;46.484;13.832;2023-01-30T04:59:05;93233.38;;;-4.75;77.43
12471;BME280;36499;46.484;13.832;2023-01-30T05:01:34;93233.50;;;-4.66;78.52
12471;BME280;36499;46.484;13.832;2023-01-30T05:04:05;93235.00;;;-4.74;79.03
12471;BME280;36499;46.484;13.832;2023-01-30T05:06:34;93238.00;;;-4.69;78.20
12471;BME280;36499;46.484;13.832;2023-01-30T05:09:02;93242.53;;;-4.73;78.50
12471;BME280;36499;46.484;13.832;2023-01-30T05:11:30;93246.53;;;-4.59;77.89
12471;BME280;36499;46.484;13.832;2023-01-30T05:13:58;93235.91;;;-4.53;76.85
12471;BME280;36499;46.484;13.832;2023-01-30T05:16:25;93247.66;;;-4.52;76.03
12471;BME280;36499;46.484;13.832;2023-01-30T05:18:53;93244.00;;;-4.70;77.51
12471;BME280;36499;46.484;13.832;2023-01-30T05:21:24;93241.38;;;-4.69;77.51
12471;BME280;36499;46.484;13.832;2023-01-30T05:23:53;93246.44;;;-4.69;77.89
12471;BME280;36499;46.484;13.832;2023-01-30T05:26:21;93247.13;;;-4.67;78.92
12471;BME280;36499;46.484;13.832;2023-01-30T05:28:51;93250.00;;;-4.60;76.99
12471;BME280;36499;46.484;13.832;2023-01-30T05:31:18;93254.88;;;-4.57;77.94
12471;BME280;36499;46.484;13.832;2023-01-30T05:33:47;93257.63;;;-4.49;79.04
12471;BME280;36499;46.484;13.832;2023-01-30T05:36:17;93244.44;;;-4.54;79.25
12471;BME280;36499;46.484;13.832;2023-01-30T05:38:46;93248.41;;;-4.29;77.91
12471;BME280;36499;46.484;13.832;2023-01-30T05:41:15;93236.25;;;-4.15;77.06
12471;BME280;36499;46.484;13.832;2023-01-30T05:43:42;93240.91;;;-4.31;76.50
12471;BME280;36499;46.484;13.832;2023-01-30T05:46:11;93238.28;;;-4.41;76.21
12471;BME280;36499;46.484;13.832;2023-01-30T05:48:39;93241.63;;;-4.40;75.45
12471;BME280;36499;46.484;13.832;2023-01-30T05:51:13;93242.78;;;-4.44;75.37
12471;BME280;36499;46.484;13.832;2023-01-30T05:53:41;93239.38;;;-4.54;76.24
12471;BME280;36499;46.484;13.832;2023-01-30T05:56:09;93244.34;;;-4.53;76.45
12471;BME280;36499;46.484;13.832;2023-01-30T05:58:36;93245.81;;;-4.50;77.76
12471;BME280;36499;46.484;13.832;2023-01-30T06:01:07;93249.81;;;-4.37;79.39
12471;BME280;36499;46.484;13.832;2023-01-30T06:03:35;93249.47;;;-4.32;78.04
12471;BME280;36499;46.484;13.832;2023-01-30T06:06:03;93242.34;;;-4.17;76.72
12471;BME280;36499;46.484;13.832;2023-01-30T06:08:31;93244.34;;;-4.21;75.71
12471;BME280;36499;46.484;13.832;2023-01-30T06:11:00;93242.53;;;-4.30;75.89
12471;BME280;36499;46.484;13.832;2023-01-30T06:13:29;93241.16;;;-4.34;76.18
12471;BME280;36499;46.484;13.832;2023-01-30T06:15:56;93235.38;;;-4.36;76.22
12471;BME280;36499;46.484;13.832;2023-01-30T06:18:23;93246.00;;;-4.31;77.75
12471;BME280;36499;46.484;13.832;2023-01-30T06:20:52;93244.13;;;-4.29;78.88
12471;BME280;36499;46.484;13.832;2023-01-30T06:23:20;93241.88;;;-4.11;78.27
12471;BME280;36499;46.484;13.832;2023-01-30T06:25:50;93229.78;;;-3.98;77.30
12471;BME280;36499;46.484;13.832;2023-01-30T06:28:18;93227.31;;;-3.89;77.33
12471;BME280;36499;46.484;13.832;2023-01-30T06:30:47;93225.69;;;-3.90;76.95
12471;BME280;36499;46.484;13.832;2023-01-30T06:33:14;93222.09;;;-3.87;78.15
12471;BME280;36499;46.484;13.832;2023-01-30T06:35:42;93212.91;;;-3.78;77.53
12471;BME280;36499;46.484;13.832;2023-01-30T06:38:10;93201.34;;;-3.82;77.36
12471;BME280;36499;46.484;13.832;2023-01-30T06:40:40;93209.09;;;-3.63;76.26
12471;BME280;36499;46.484;13.832;2023-01-30T06:43:09;93203.09;;;-3.62;77.13
12471;BME280;36499;46.484;13.832;2023-01-30T06:45:36;93204.88;;;-3.53;77.00
12471;BME280;36499;46.484;13.832;2023-01-30T06:48:06;93205.13;;;-3.56;76.70
12471;BME280;36499;46.484;13.832;2023-01-30T06:50:34;93207.41;;;-3.53;76.05
12471;BME280;36499;46.484;13.832;2023-01-30T06:53:03;93208.13;;;-3.42;75.41
12471;BME280;36499;46.484;13.832;2023-01-30T06:55:33;93201.47;;;-3.33;75.09
12471;BME280;36499;46.484;13.832;2023-01-30T06:58:03;93205.69;;;-3.22;75.27
12471;BME280;36499;46.484;13.832;2023-01-30T07:00:32;93194.69;;;-3.23;75.18
12471;BME280;36499;46.484;13.832;2023-01-30T07:02:59;93178.63;;;-3.14;74.95
12471;BME280;36499;46.484;13.832;2023-01-30T07:05:28;93174.34;;;-3.04;75.53
12471;BME280;36499;46.484;13.832;2023-01-30T07:07:55;93175.97;;;-3.03;75.13
12471;BME280;36499;46.484;13.832;2023-01-30T07:10:22;93168.59;;;-2.96;75.77
12471;BME280;36499;46.484;13.832;2023-01-30T07:12:51;93175.16;;;-3.03;75.87
12471;BME280;36499;46.484;13.832;2023-01-30T07:15:19;93182.81;;;-3.03;76.09
12471;BME280;36499;46.484;13.832;2023-01-30T07:17:46;93190.63;;;-2.95;76.82
12471;BME280;36499;46.484;13.832;2023-01-30T07:20:14;93201.53;;;-2.83;75.69
12471;BME280;36499;46.484;13.832;2023-01-30T07:22:49;93200.34;;;-2.70;75.82
12471;BME280;36499;46.484;13.832;2023-01-30T07:25:17;93188.50;;;-2.80;75.35
12471;BME280;36499;46.484;13.832;2023-01-30T07:27:49;93174.44;;;-2.65;74.67
12471;BME280;36499;46.484;13.832;2023-01-30T07:30:17;93177.28;;;-2.59;75.66
12471;BME280;36499;46.484;13.832;2023-01-30T07:32:49;93165.31;;;-2.58;74.90
12471;BME280;36499;46.484;13.832;2023-01-30T07:35:16;93179.16;;;-2.70;75.01
12471;BME280;36499;46.484;13.832;2023-01-30T07:37:45;93176.47;;;-2.59;75.72
12471;BME280;36499;46.484;13.832;2023-01-30T07:40:13;93178.38;;;-2.52;75.79
12471;BME280;36499;46.484;13.832;2023-01-30T07:42:41;93174.59;;;-2.38;76.21
12471;BME280;36499;46.484;13.832;2023-01-30T07:45:10;93186.81;;;-2.13;75.96
12471;BME280;36499;46.484;13.832;2023-01-30T07:47:37;93189.50;;;-1.76;73.62
12471;BME280;36499;46.484;13.832;2023-01-30T07:50:06;93183.97;;;-1.62;73.60
12471;BME280;36499;46.484;13.832;2023-01-30T07:52:33;93169.44;;;-1.61;72.13
12471;BME280;36499;46.484;13.832;2023-01-30T07:55:02;93174.22;;;-1.39;72.65
12471;BME280;36499;46.484;13.832;2023-01-30T07:57:29;93174.19;;;-1.29;71.61
12471;BME280;36499;46.484;13.832;2023-01-30T07:59:56;93158.03;;;-1.30;71.26
12471;BME280;36499;46.484;13.832;2023-01-30T08:02:24;93158.47;;;-1.34;71.62
12471;BME280;36499;46.484;13.832;2023-01-30T08:04:51;93146.44;;;-1.24;72.05
12471;BME280;36499;46.484;13.832;2023-01-30T08:07:18;93145.44;;;-1.14;71.32
12471;BME280;36499;46.484;13.832;2023-01-30T08:09:45;93134.38;;;-1.05;70.82
12471;BME280;36499;46.484;13.832;2023-01-30T08:12:13;93132.34;;;-1.01;70.86
12471;BME280;36499;46.484;13.832;2023-01-30T08:14:40;93127.31;;;-0.93;71.26
12471;BME280;36499;46.484;13.832;2023-01-30T08:17:07;93118.69;;;-0.92;70.96
12471;BME280;36499;46.484;13.832;2023-01-30T08:19:35;93122.38;;;-0.77;70.16
12471;BME280;36499;46.484;13.832;2023-01-30T08:22:02;93125.53;;;-0.65;70.70
12471;BME280;36499;46.484;13.832;2023-01-30T08:24:29;93133.56;;;-0.60;70.44
12471;BME280;36499;46.484;13.832;2023-01-30T08:26:56;93140.19;;;-0.85;70.14
12471;BME280;36499;46.484;13.832;2023-01-30T08:29:26;93137.03;;;-0.97;70.41
12471;BME280;36499;46.484;13.832;2023-01-30T08:31:56;93133.94;;;-0.73;69.96
12471;BME280;36499;46.484;13.832;2023-01-30T08:34:24;93136.03;;;-0.68;70.09
12471;BME280;36499;46.484;13.832;2023-01-30T08:36:51;93136.72;;;-0.66;69.21
12471;BME280;36499;46.484;13.832;2023-01-30T08:39:19;93138.84;;;-0.62;69.03
12471;BME280;36499;46.484;13.832;2023-01-30T08:41:46;93134.16;;;-0.49;68.92
12471;BME280;36499;46.484;13.832;2023-01-30T08:44:13;93136.22;;;-0.34;68.96
12471;BME280;36499;46.484;13.832;2023-01-30T08:46:41;93139.13;;;-0.29;69.13
12471;BME280;36499;46.484;13.832;2023-01-30T08:49:09;93137.53;;;-0.13;68.88
12471;BME280;36499;46.484;13.832;2023-01-30T08:51:37;93129.25;;;-0.07;68.25
12471;BME280;36499;46.484;13.832;2023-01-30T08:54:05;93131.97;;;-0.08;68.19
12471;BME280;36499;46.484;13.832;2023-01-30T08:56:33;93143.25;;;0.25;67.46
12471;BME280;36499;46.484;13.832;2023-01-30T08:59:00;93145.31;;;0.47;66.40
12471;BME280;36499;46.484;13.832;2023-01-30T09:01:28;93142.47;;;0.76;67.05
12471;BME280;36499;46.484;13.832;2023-01-30T09:03:56;93145.34;;;0.81;65.44
12471;BME280;36499;46.484;13.832;2023-01-30T09:06:23;93146.56;;;0.69;65.87
12471;BME280;36499;46.484;13.832;2023-01-30T09:08:51;93141.16;;;0.72;65.13
12471;BME280;36499;46.484;13.832;2023-01-30T09:11:18;93143.09;;;1.12;64.18
12471;BME280;36499;46.484;13.832;2023-01-30T09:13:46;93137.88;;;1.29;64.36
12471;BME280;36499;46.484;13.832;2023-01-30T09:16:13;93126.13;;;1.27;64.61
12471;BME280;36499;46.484;13.832;2023-01-30T09:18:42;93114.53;;;1.15;64.63
12471;BME280;36499;46.484;13.832;2023-01-30T09:21:12;93096.28;;;1.34;64.19
12471;BME280;36499;46.484;13.832;2023-01-30T09:23:40;93103.38;;;1.40;63.99
12471;BME280;36499;46.484;13.832;2023-01-30T09:26:07;93100.44;;;1.27;63.72
12471;BME280;36499;46.484;13.832;2023-01-30T09:28:34;93096.94;;;1.28;63.72
12471;BME280;36499;46.484;13.832;2023-01-30T09:31:02;93092.56;;;1.12;64.32
12471;BME280;36499;46.484;13.832;2023-01-30T09:33:30;93082.47;;;1.19;64.99
12471;BME280;36499;46.484;13.832;2023-01-30T09:35:57;93083.81;;;1.55;63.56
12471;BME280;36499;46.484;13.832;2023-01-30T09:38:26;93082.06;;;1.80;62.89
12471;BME280;36499;46.484;13.832;2023-01-30T09:41:26;93069.38;;;1.70;63.34
12471;BME280;36499;46.484;13.832;2023-01-30T09:44:14;93060.69;;;1.71;63.34
12471;BME280;36499;46.484;13.832;2023-01-30T09:46:49;93062.97;;;1.66;63.37
12471;BME280;36499;46.484;13.832;2023-01-30T09:49:31;93055.56;;;1.87;62.75
12471;BME280;36499;46.484;13.832;2023-01-30T09:52:17;93053.47;;;2.07;62.12
12471;BME280;36499;46.484;13.832;2023-01-30T09:54:53;93049.59;;;2.11;61.85
12471;BME280;36499;46.484;13.832;2023-01-30T09:57:25;93046.22;;;2.19;61.68
12471;BME280;36499;46.484;13.832;2023-01-30T09:59:59;93041.63;;;2.53;60.98
12471;BME280;36499;46.484;13.832;2023-01-30T10:02:43;93022.88;;;2.83;60.68
12471;BME280;36499;46.484;13.832;2023-01-30T10:05:13;93025.00;;;3.11;60.32
12471;BME280;36499;46.484;13.832;2023-01-30T10:08:03;93016.22;;;3.20;59.67
12471;BME280;36499;46.484;13.832;2023-01-30T10:10:46;93005.31;;;3.18;58.51
12471;BME280;36499;46.484;13.832;2023-01-30T10:13:34;92977.22;;;3.54;58.67
12471;BME280;36499;46.484;13.832;2023-01-30T10:16:14;92969.84;;;3.65;57.37
12471;BME280;36499;46.484;13.832;2023-01-30T10:19:06;92964.81;;;3.34;57.01
12471;BME280;36499;46.484;13.832;2023-01-30T10:21:46;92954.41;;;3.20;56.72
12471;BME280;36499;46.484;13.832;2023-01-30T10:24:34;92944.41;;;3.25;57.78
12471;BME280;36499;46.484;13.832;2023-01-30T10:27:13;92940.00;;;3.11;58.49
12471;BME280;36499;46.484;13.832;2023-01-30T10:29:47;92941.38;;;2.99;58.43
12471;BME280;36499;46.484;13.832;2023-01-30T10:32:24;92936.47;;;3.34;59.06
12471;BME280;36499;46.484;13.832;2023-01-30T10:35:00;92933.19;;;3.41;57.80
12471;BME280;36499;46.484;13.832;2023-01-30T10:37:37;92924.16;;;3.59;57.64
12471;BME280;36499;46.484;13.832;2023-01-30T10:40:19;92916.56;;;4.10;57.35
12471;BME280;36499;46.484;13.832;2023-01-30T10:42:58;92909.19;;;4.72;57.05
12471;BME280;36499;46.484;13.832;2023-01-30T10:45:37;92913.75;;;5.06;53.44
12471;BME280;36499;46.484;13.832;2023-01-30T10:48:30;92909.63;;;5.32;53.21
12471;BME280;36499;46.484;13.832;2023-01-30T10:51:14;92898.03;;;5.50;52.04
12471;BME280;36499;46.484;13.832;2023-01-30T10:53:51;92892.50;;;5.53;52.11
12471;BME280;36499;46.484;13.832;2023-01-30T10:56:31;92887.09;;;5.75;51.65
12471;BME280;36499;46.484;13.832;2023-01-30T10:59:15;92883.47;;;5.98;50.48
12471;BME280;36499;46.484;13.832;2023-01-30T11:01:58;92880.44;;;5.88;50.03
12471;BME280;36499;46.484;13.832;2023-01-30T11:04:34;92868.28;;;5.60;50.60
12471;BME280;36499;46.484;13.832;2023-01-30T11:07:04;92857.91;;;5.54;51.52
12471;BME280;36499;46.484;13.832;2023-01-30T11:09:40;92843.78;;;5.56;50.98
12471;BME280;36499;46.484;13.832;2023-01-30T11:12:08;92835.91;;;5.64;50.23
12471;BME280;36499;46.484;13.832;2023-01-30T11:14:58;92823.38;;;5.96;49.97
12471;BME280;36499;46.484;13.832;2023-01-30T11:17:32;92822.97;;;6.40;50.17
12471;BME280;36499;46.484;13.832;2023-01-30T11:20:08;92818.50;;;6.68;49.75
12471;BME280;36499;46.484;13.832;2023-01-30T11:22:45;92807.78;;;7.23;50.25
12471;BME280;36499;46.484;13.832;2023-01-30T11:25:16;92804.75;;;7.86;51.13
12471;BME280;36499;46.484;13.832;2023-01-30T11:27:53;92812.09;;;8.66;49.91
12471;BME280;36499;46.484;13.832;2023-01-30T11:30:27;92791.56;;;9.70;46.14
12471;BME280;36499;46.484;13.832;2023-01-30T11:33:10;92778.69;;;10.66;44.14
12471;BME280;36499;46.484;13.832;2023-01-30T11:35:43;92768.31;;;11.19;43.72
12471;BME280;36499;46.484;13.832;2023-01-30T11:38:22;92770.91;;;11.07;42.33
12471;BME280;36499;46.484;13.832;2023-01-30T11:41:03;92769.31;;;10.47;42.13
12471;BME280;36499;46.484;13.832;2023-01-30T11:43:32;92759.06;;;10.34;43.69
12471;BME280;36499;46.484;13.832;2023-01-30T11:46:01;92748.22;;;10.19;43.73
12471;BME280;36499;46.484;13.832;2023-01-30T11:48:32;92750.84;;;9.76;45.99
12471;BME280;36499;46.484;13.832;2023-01-30T11:51:04;92747.38;;;9.82;46.78
12471;BME280;36499;46.484;13.832;2023-01-30T11:53:36;92756.16;;;9.62;47.22
12471;BME280;36499;46.484;13.832;2023-01-30T11:56:08;92744.66;;;9.52;47.09
12471;BME280;36499;46.484;13.832;2023-01-30T11:58:40;92745.31;;;9.47;47.44
12471;BME280;36499;46.484;13.832;2023-01-30T12:01:13;92743.00;;;9.39;41.93
12471;BME280;36499;46.484;13.832;2023-01-30T12:03:47;92740.28;;;9.28;44.24
12471;BME280;36499;46.484;13.832;2023-01-30T12:06:31;92744.66;;;9.09;48.45
12471;BME280;36499;46.484;13.832;2023-01-30T12:08:59;92728.09;;;9.28;48.61
12471;BME280;36499;46.484;13.832;2023-01-30T12:11:40;92718.06;;;9.32;47.20
12471;BME280;36499;46.484;13.832;2023-01-30T12:14:23;92712.06;;;9.49;47.49
12471;BME280;36499;46.484;13.832;2023-01-30T12:17:02;92699.00;;;9.74;46.13
12471;BME280;36499;46.484;13.832;2023-01-30T12:19:47;92683.03;;;9.71;44.77
12471;BME280;36499;46.484;13.832;2023-01-30T12:22:25;92679.78;;;9.57;45.34
12471;BME280;36499;46.484;13.832;2023-01-30T12:25:00;92692.19;;;9.55;47.26
12471;BME280;36499;46.484;13.832;2023-01-30T12:27:48;92684.28;;;9.25;48.30
12471;BME280;36499;46.484;13.832;2023-01-30T12:30:29;92686.38;;;9.17;48.83
12471;BME280;36499;46.484;13.832;2023-01-30T12:33:05;92681.94;;;9.17;48.30
12471;BME280;36499;46.484;13.832;2023-01-30T12:35:48;92687.91;;;8.75;48.21
12471;BME280;36499;46.484;13.832;2023-01-30T12:38:45;92689.50;;;8.76;46.12
12471;BME280;36499;46.484;13.832;2023-01-30T12:41:29;92699.56;;;8.65;44.62
12471;BME280;36499;46.484;13.832;2023-01-30T12:44:26;92688.19;;;8.60;43.25
12471;BME280;36499;46.484;13.832;2023-01-30T12:47:19;92685.31;;;8.75;44.51
12471;BME280;36499;46.484;13.832;2023-01-30T12:50:19;92686.66;;;8.52;48.47
12471;BME280;36499;46.484;13.832;2023-01-30T12:53:23;92685.09;;;8.45;44.82
12471;BME280;36499;46.484;13.832;2023-01-30T12:58:53;92671.16;;;8.01;49.83
12471;BME280;36499;46.484;13.832;2023-01-30T13:01:32;92665.34;;;8.06;50.46
12471;BME280;36499;46.484;13.832;2023-01-30T13:04:18;92665.09;;;8.07;50.41
12471;BME280;36499;46.484;13.832;2023-01-30T13:07:04;92658.28;;;7.75;51.16
12471;BME280;36499;46.484;13.832;2023-01-30T13:10:05;92656.59;;;7.43;48.69
12471;BME280;36499;46.484;13.832;2023-01-30T13:12:44;92661.59;;;7.44;50.68
12471;BME280;36499;46.484;13.832;2023-01-30T13:15:21;92670.59;;;7.29;51.34
12471;BME280;36499;46.484;13.832;2023-01-30T13:18:04;92668.25;;;7.07;49.92
12471;BME280;36499;46.484;13.832;2023-01-30T13:20:55;92667.88;;;6.71;50.85
12471;BME280;36499;46.484;13.832;2023-01-30T13:23:39;92667.25;;;6.36;51.88
12471;BME280;36499;46.484;13.832;2023-01-30T13:26:13;92677.44;;;5.77;54.71
12471;BME280;36499;46.484;13.832;2023-01-30T13:28:47;92685.25;;;5.43;54.97
12471;BME280;36499;46.484;13.832;2023-01-30T13:31:19;92696.97;;;5.11;55.53
12471;BME280;36499;46.484;13.832;2023-01-30T13:33:55;92697.81;;;4.62;55.99